sensor_id;sensor_type;location;lat;lon;timestamp;P1;P2;P0
67714;PMS7003;54505;44.022;20.458;2023-04-24T00:00:27;30.25;24.25;19.25
67714;PMS7003;54505;44.022;20.458;2023-04-24T00:03:13;37.25;36.25;27.50
67714;PMS7003;54505;44.022;20.458;2023-04-24T00:05:39;41.00;37.00;27.50
67714;PMS7003;54505;44.022;20.458;2023-04-24T00:08:05;35.75;32.25;25.25
67714;PMS7003;54505;44.022;20.458;2023-04-24T00:10:31;44.00;37.75;27.50
67714;PMS7003;54505;44.022;20.458;2023-04-24T00:12:57;33.25;33.25;28.00
67714;PMS7003;54505;44.022;20.458;2023-04-24T00:15:23;43.50;35.00;27.75
67714;PMS7003;54505;44.022;20.458;2023-04-24T00:17:49;39.50;39.25;29.50
67714;PMS7003;54505;44.022;20.458;2023-04-24T00:20:14;38.25;35.00;28.00
67714;PMS7003;54505;44.022;20.458;2023-04-24T00:22:40;36.75;35.25;27.75
67714;PMS7003;54505;44.022;20.458;2023-04-24T00:25:05;31.50;31.50;27.25
67714;PMS7003;54505;44.022;20.458;2023-04-24T00:27:31;35.50;35.25;26.50
67714;PMS7003;54505;44.022;20.458;2023-04-24T00:29:57;43.25;41.50;30.25
67714;PMS7003;54505;44.022;20.458;2023-04-24T00:32:25;33.50;33.50;28.00
67714;PMS7003;54505;44.022;20.458;2023-04-24T00:34:50;40.50;36.00;25.75
67714;PMS7003;54505;44.022;20.458;2023-04-24T00:37:16;40.25;36.50;27.50
67714;PMS7003;54505;44.022;20.458;2023-04-24T00:39:41;33.00;31.00;25.00
67714;PMS7003;54505;44.022;20.458;2023-04-24T00:42:07;47.25;44.75;30.00
67714;PMS7003;54505;44.022;20.458;2023-04-24T00:44:33;38.50;37.00;29.00
67714;PMS7003;54505;44.022;20.458;2023-04-24T00:47:00;37.00;37.00;29.75
67714;PMS7003;54505;44.022;20.458;2023-04-24T00:49:26;45.00;42.00;30.00
67714;PMS7003;54505;44.022;20.458;2023-04-24T00:51:52;35.75;35.75;28.25
67714;PMS7003;54505;44.022;20.458;2023-04-24T00:54:19;48.75;44.75;32.25
67714;PMS7003;54505;44.022;20.458;2023-04-24T00:56:45;44.50;41.50;29.25
67714;PMS7003;54505;44.022;20.458;2023-04-24T00:59:16;51.50;47.25;33.75
67714;PMS7003;54505;44.022;20.458;2023-04-24T01:01:43;47.25;43.50;30.00
67714;PMS7003;54505;44.022;20.458;2023-04-24T01:04:11;52.50;46.75;34.25
67714;PMS7003;54505;44.022;20.458;2023-04-24T01:06:38;54.25;48.75;35.25
67714;PMS7003;54505;44.022;20.458;2023-04-24T01:09:04;42.50;40.50;28.00
67714;PMS7003;54505;44.022;20.458;2023-04-24T01:11:30;50.75;47.00;33.75
67714;PMS7003;54505;44.022;20.458;2023-04-24T01:13:56;53.25;47.75;32.00
67714;PMS7003;54505;44.022;20.458;2023-04-24T01:16:22;45.75;44.50;31.00
67714;PMS7003;54505;44.022;20.458;2023-04-24T01:18:47;44.75;43.00;31.25
67714;PMS7003;54505;44.022;20.458;2023-04-24T01:21:14;45.50;44.00;31.50
67714;PMS7003;54505;44.022;20.458;2023-04-24T01:23:42;48.25;41.25;30.50
67714;PMS7003;54505;44.022;20.458;2023-04-24T01:26:08;44.75;39.00;30.00
67714;PMS7003;54505;44.022;20.458;2023-04-24T01:28:34;48.25;39.75;28.00
67714;PMS7003;54505;44.022;20.458;2023-04-24T01:30:59;35.00;32.25;24.00
67714;PMS7003;54505;44.022;20.458;2023-04-24T01:33:25;38.25;38.25;27.00
67714;PMS7003;54505;44.022;20.458;2023-04-24T01:35:51;38.25;37.00;28.25
67714;PMS7003;54505;44.022;20.458;2023-04-24T01:38:16;45.25;42.25;30.75
67714;PMS7003;54505;44.022;20.458;2023-04-24T01:40:42;56.50;48.00;32.75
67714;PMS7003;54505;44.022;20.458;2023-04-24T01:43:08;43.75;43.25;31.00
67714;PMS7003;54505;44.022;20.458;2023-04-24T01:45:34;47.00;42.25;31.00
67714;PMS7003;54505;44.022;20.458;2023-04-24T01:48:00;39.25;37.75;28.00
67714;PMS7003;54505;44.022;20.458;2023-04-24T01:50:26;33.50;33.50;28.25
67714;PMS7003;54505;44.022;20.458;2023-04-24T01:52:51;42.50;33.00;27.50
67714;PMS7003;54505;44.022;20.458;2023-04-24T01:55:17;32.50;28.75;22.50
67714;PMS7003;54505;44.022;20.458;2023-04-24T01:57:43;46.00;44.50;33.25
67714;PMS7003;54505;44.022;20.458;2023-04-24T02:00:09;27.75;25.00;19.00
67714;PMS7003;54505;44.022;20.458;2023-04-24T02:02:36;45.00;42.25;30.75
67714;PMS7003;54505;44.022;20.458;2023-04-24T02:05:02;42.50;38.75;30.00
67714;PMS7003;54505;44.022;20.458;2023-04-24T02:07:28;38.50;34.00;28.00
67714;PMS7003;54505;44.022;20.458;2023-04-24T02:09:54;40.25;33.50;27.25
67714;PMS7003;54505;44.022;20.458;2023-04-24T02:12:20;36.25;36.25;28.00
67714;PMS7003;54505;44.022;20.458;2023-04-24T02:14:46;43.50;41.50;30.50
67714;PMS7003;54505;44.022;20.458;2023-04-24T02:17:12;39.75;39.00;29.75
67714;PMS7003;54505;44.022;20.458;2023-04-24T02:19:38;36.25;35.00;27.00
67714;PMS7003;54505;44.022;20.458;2023-04-24T02:22:04;34.75;32.50;27.00
67714;PMS7003;54505;44.022;20.458;2023-04-24T02:24:30;34.25;34.25;26.25
67714;PMS7003;54505;44.022;20.458;2023-04-24T02:26:55;34.50;34.50;26.25
67714;PMS7003;54505;44.022;20.458;2023-04-24T02:29:21;32.75;31.75;25.75
67714;PMS7003;54505;44.022;20.458;2023-04-24T02:31:47;36.00;34.00;25.50
67714;PMS7003;54505;44.022;20.458;2023-04-24T02:34:12;36.75;34.75;25.00
67714;PMS7003;54505;44.022;20.458;2023-04-24T02:36:38;35.50;35.50;28.00
67714;PMS7003;54505;44.022;20.458;2023-04-24T02:39:04;42.75;38.50;30.00
67714;PMS7003;54505;44.022;20.458;2023-04-24T02:41:29;44.25;41.50;31.75
67714;PMS7003;54505;44.022;20.458;2023-04-24T02:43:57;30.25;30.25;25.50
67714;PMS7003;54505;44.022;20.458;2023-04-24T02:46:23;36.00;34.50;28.00
67714;PMS7003;54505;44.022;20.458;2023-04-24T02:48:49;36.00;34.50;27.50
67714;PMS7003;54505;44.022;20.458;2023-04-24T02:51:14;41.75;37.25;28.00
67714;PMS7003;54505;44.022;20.458;2023-04-24T02:53:40;31.25;31.25;24.00
67714;PMS7003;54505;44.022;20.458;2023-04-24T02:56:06;34.75;34.75;28.00
67714;PMS7003;54505;44.022;20.458;2023-04-24T02:58:32;41.25;41.25;29.25
67714;PMS7003;54505;44.022;20.458;2023-04-24T03:00:57;36.00;33.00;25.50
67714;PMS7003;54505;44.022;20.458;2023-04-24T03:03:23;26.00;26.00;21.75
67714;PMS7003;54505;44.022;20.458;2023-04-24T03:05:49;30.25;30.25;23.25
67714;PMS7003;54505;44.022;20.458;2023-04-24T03:08:15;35.50;35.50;27.75
67714;PMS7003;54505;44.022;20.458;2023-04-24T03:10:40;37.00;35.25;29.75
67714;PMS7003;54505;44.022;20.458;2023-04-24T03:13:06;42.75;40.00;28.50
67714;PMS7003;54505;44.022;20.458;2023-04-24T03:15:31;43.25;42.50;30.00
67714;PMS7003;54505;44.022;20.458;2023-04-24T03:17:57;41.25;38.00;29.75
67714;PMS7003;54505;44.022;20.458;2023-04-24T03:20:23;39.00;39.00;27.75
67714;PMS7003;54505;44.022;20.458;2023-04-24T03:22:48;29.75;28.00;27.00
67714;PMS7003;54505;44.022;20.458;2023-04-24T03:25:14;35.50;34.75;28.00
67714;PMS7003;54505;44.022;20.458;2023-04-24T03:27:40;36.25;35.50;28.00
67714;PMS7003;54505;44.022;20.458;2023-04-24T03:30:08;33.75;33.00;26.50
67714;PMS7003;54505;44.022;20.458;2023-04-24T03:32:34;28.75;28.25;24.50
67714;PMS7003;54505;44.022;20.458;2023-04-24T03:35:00;34.50;34.50;25.00
67714;PMS7003;54505;44.022;20.458;2023-04-24T03:37:26;30.25;28.00;21.75
67714;PMS7003;54505;44.022;20.458;2023-04-24T03:39:52;38.00;38.00;29.00
67714;PMS7003;54505;44.022;20.458;2023-04-24T03:42:17;37.75;34.00;23.50
67714;PMS7003;54505;44.022;20.458;2023-04-24T03:44:43;39.25;36.25;28.00
67714;PMS7003;54505;44.022;20.458;2023-04-24T03:47:09;32.75;32.75;28.00
67714;PMS7003;54505;44.022;20.458;2023-04-24T03:49:34;28.75;26.75;23.25
67714;PMS7003;54505;44.022;20.458;2023-04-24T03:52:01;32.75;32.75;27.25
67714;PMS7003;54505;44.022;20.458;2023-04-24T03:54:26;33.25;32.25;27.00
67714;PMS7003;54505;44.022;20.458;2023-04-24T03:56:52;30.00;30.00;25.00
67714;PMS7003;54505;44.022;20.458;2023-04-24T03:59:18;30.25;30.25;25.25
67714;PMS7003;54505;44.022;20.458;2023-04-24T04:01:44;29.00;29.00;24.00
67714;PMS7003;54505;44.022;20.458;2023-04-24T04:04:10;39.50;35.50;26.00
67714;PMS7003;54505;44.022;20.458;2023-04-24T04:06:36;29.75;28.00;24.00
67714;PMS7003;54505;44.022;20.458;2023-04-24T04:09:02;33.50;33.50;26.50
67714;PMS7003;54505;44.022;20.458;2023-04-24T04:11:29;44.00;39.50;29.75
67714;PMS7003;54505;44.022;20.458;2023-04-24T04:13:55;35.75;33.50;26.50
67714;PMS7003;54505;44.022;20.458;2023-04-24T04:16:22;39.50;39.00;30.50
67714;PMS7003;54505;44.022;20.458;2023-04-24T04:18:48;33.50;33.25;26.25
67714;PMS7003;54505;44.022;20.458;2023-04-24T04:21:13;44.25;42.50;31.50
67714;PMS7003;54505;44.022;20.458;2023-04-24T04:23:39;44.50;41.50;30.50
67714;PMS7003;54505;44.022;20.458;2023-04-24T04:26:05;46.50;41.25;28.25
67714;PMS7003;54505;44.022;20.458;2023-04-24T04:28:31;49.25;43.00;33.00
67714;PMS7003;54505;44.022;20.458;2023-04-24T04:30:58;46.75;39.00;30.75
67714;PMS7003;54505;44.022;20.458;2023-04-24T04:33:23;49.00;46.00;33.00
67714;PMS7003;54505;44.022;20.458;2023-04-24T04:35:50;45.00;35.75;29.00
67714;PMS7003;54505;44.022;20.458;2023-04-24T04:38:17;44.50;40.50;29.75
67714;PMS7003;54505;44.022;20.458;2023-04-24T04:40:43;50.50;41.75;31.00
67714;PMS7003;54505;44.022;20.458;2023-04-24T04:43:09;46.75;39.25;28.00
67714;PMS7003;54505;44.022;20.458;2023-04-24T04:45:36;43.00;41.75;29.75
67714;PMS7003;54505;44.022;20.458;2023-04-24T04:48:04;62.25;47.75;34.75
67714;PMS7003;54505;44.022;20.458;2023-04-24T04:50:30;46.25;43.25;29.50
67714;PMS7003;54505;44.022;20.458;2023-04-24T04:52:55;61.00;52.50;36.00
67714;PMS7003;54505;44.022;20.458;2023-04-24T04:55:21;53.25;44.00;32.00
67714;PMS7003;54505;44.022;20.458;2023-04-24T04:57:47;38.75;38.75;29.75
67714;PMS7003;54505;44.022;20.458;2023-04-24T05:00:13;35.00;35.00;28.00
67714;PMS7003;54505;44.022;20.458;2023-04-24T05:02:39;32.50;32.50;27.50
67714;PMS7003;54505;44.022;20.458;2023-04-24T05:05:05;54.00;46.25;29.50
67714;PMS7003;54505;44.022;20.458;2023-04-24T05:07:31;39.00;37.25;27.50
67714;PMS7003;54505;44.022;20.458;2023-04-24T05:09:56;57.50;50.00;36.25
67714;PMS7003;54505;44.022;20.458;2023-04-24T05:12:22;52.25;43.75;31.25
67714;PMS7003;54505;44.022;20.458;2023-04-24T05:14:48;46.25;43.75;31.00
67714;PMS7003;54505;44.022;20.458;2023-04-24T05:17:13;44.25;42.50;30.00
67714;PMS7003;54505;44.022;20.458;2023-04-24T05:19:39;58.50;42.75;30.25
67714;PMS7003;54505;44.022;20.458;2023-04-24T05:22:05;40.50;37.00;29.25
67714;PMS7003;54505;44.022;20.458;2023-04-24T05:24:32;48.00;40.75;30.00
67714;PMS7003;54505;44.022;20.458;2023-04-24T05:26:58;45.75;34.00;27.00
67714;PMS7003;54505;44.022;20.458;2023-04-24T05:29:24;48.50;45.25;33.75
67714;PMS7003;54505;44.022;20.458;2023-04-24T05:31:51;51.00;45.75;34.75
67714;PMS7003;54505;44.022;20.458;2023-04-24T05:34:17;37.50;37.00;28.00
67714;PMS7003;54505;44.022;20.458;2023-04-24T05:36:42;62.00;51.50;34.50
67714;PMS7003;54505;44.022;20.458;2023-04-24T05:39:08;35.75;31.75;27.25
67714;PMS7003;54505;44.022;20.458;2023-04-24T05:41:34;39.50;35.00;27.25
67714;PMS7003;54505;44.022;20.458;2023-04-24T05:44:00;37.25;37.25;29.75
67714;PMS7003;54505;44.022;20.458;2023-04-24T05:46:25;38.75;37.50;29.25
67714;PMS7003;54505;44.022;20.458;2023-04-24T05:48:51;30.50;30.50;23.50
67714;PMS7003;54505;44.022;20.458;2023-04-24T05:51:17;41.00;36.25;28.25
67714;PMS7003;54505;44.022;20.458;2023-04-24T05:53:42;19.50;19.50;14.50
67714;PMS7003;54505;44.022;20.458;2023-04-24T05:56:08;27.50;27.50;23.75
67714;PMS7003;54505;44.022;20.458;2023-04-24T05:58:34;35.75;35.75;25.75
67714;PMS7003;54505;44.022;20.458;2023-04-24T06:00:59;33.25;26.25;22.00
67714;PMS7003;54505;44.022;20.458;2023-04-24T06:03:27;36.00;29.25;22.50
67714;PMS7003;54505;44.022;20.458;2023-04-24T06:05:53;32.00;32.00;22.50
67714;PMS7003;54505;44.022;20.458;2023-04-24T06:08:19;39.25;37.25;28.25
67714;PMS7003;54505;44.022;20.458;2023-04-24T06:10:44;32.50;29.25;23.75
67714;PMS7003;54505;44.022;20.458;2023-04-24T06:13:11;40.00;34.75;26.75
67714;PMS7003;54505;44.022;20.458;2023-04-24T06:15:37;33.75;30.75;26.75
67714;PMS7003;54505;44.022;20.458;2023-04-24T06:18:04;37.75;33.75;25.75
67714;PMS7003;54505;44.022;20.458;2023-04-24T06:20:29;40.75;37.50;27.00
67714;PMS7003;54505;44.022;20.458;2023-04-24T06:22:55;32.50;32.50;24.25
67714;PMS7003;54505;44.022;20.458;2023-04-24T06:25:21;41.00;40.00;27.25
67714;PMS7003;54505;44.022;20.458;2023-04-24T06:27:46;28.25;25.25;18.25
67714;PMS7003;54505;44.022;20.458;2023-04-24T06:30:12;56.50;47.25;35.50
67714;PMS7003;54505;44.022;20.458;2023-04-24T06:32:38;21.75;18.25;15.50
67714;PMS7003;54505;44.022;20.458;2023-04-24T06:35:04;29.75;29.75;24.00
67714;PMS7003;54505;44.022;20.458;2023-04-24T06:37:30;24.00;24.00;19.25
67714;PMS7003;54505;44.022;20.458;2023-04-24T06:39:55;22.25;21.25;18.50
67714;PMS7003;54505;44.022;20.458;2023-04-24T06:42:21;15.25;15.25;12.25
67714;PMS7003;54505;44.022;20.458;2023-04-24T06:44:47;10.00;10.00;10.00
67714;PMS7003;54505;44.022;20.458;2023-04-24T06:47:13;9.50;9.00;8.00
67714;PMS7003;54505;44.022;20.458;2023-04-24T06:49:41;14.75;11.25;10.50
67714;PMS7003;54505;44.022;20.458;2023-04-24T06:52:07;15.00;9.75;9.50
67714;PMS7003;54505;44.022;20.458;2023-04-24T06:54:33;11.50;11.25;10.00
67714;PMS7003;54505;44.022;20.458;2023-04-24T06:56:59;9.75;9.75;9.00
67714;PMS7003;54505;44.022;20.458;2023-04-24T06:59:26;8.50;8.50;7.25
67714;PMS7003;54505;44.022;20.458;2023-04-24T07:01:52;10.00;10.00;9.00
67714;PMS7003;54505;44.022;20.458;2023-04-24T07:04:17;9.00;9.00;9.00
67714;PMS7003;54505;44.022;20.458;2023-04-24T07:06:44;11.25;10.50;10.00
67714;PMS7003;54505;44.022;20.458;2023-04-24T07:09:11;9.00;9.00;8.00
67714;PMS7003;54505;44.022;20.458;2023-04-24T07:11:36;21.25;19.50;16.50
67714;PMS7003;54505;44.022;20.458;2023-04-24T07:14:05;11.00;10.00;8.50
67714;PMS7003;54505;44.022;20.458;2023-04-24T07:16:31;10.00;10.00;9.00
67714;PMS7003;54505;44.022;20.458;2023-04-24T07:18:57;9.50;9.50;7.25
67714;PMS7003;54505;44.022;20.458;2023-04-24T07:21:23;10.00;10.00;8.75
67714;PMS7003;54505;44.022;20.458;2023-04-24T07:23:48;11.50;9.00;9.00
67714;PMS7003;54505;44.022;20.458;2023-04-24T07:26:14;10.00;10.00;9.00
67714;PMS7003;54505;44.022;20.458;2023-04-24T07:28:40;10.00;9.75;9.00
67714;PMS7003;54505;44.022;20.458;2023-04-24T07:31:06;9.00;8.00;8.00
67714;PMS7003;54505;44.022;20.458;2023-04-24T07:33:32;11.25;10.25;9.50
67714;PMS7003;54505;44.022;20.458;2023-04-24T07:35:58;12.50;9.25;9.00
67714;PMS7003;54505;44.022;20.458;2023-04-24T07:38:24;12.50;10.25;10.00
67714;PMS7003;54505;44.022;20.458;2023-04-24T07:40:51;9.25;9.25;8.50
67714;PMS7003;54505;44.022;20.458;2023-04-24T07:43:17;10.50;8.75;8.75
67714;PMS7003;54505;44.022;20.458;2023-04-24T07:45:43;8.50;8.50;8.00
67714;PMS7003;54505;44.022;20.458;2023-04-24T07:48:09;11.25;11.25;10.25
67714;PMS7003;54505;44.022;20.458;2023-04-24T07:50:35;9.50;9.00;9.00
67714;PMS7003;54505;44.022;20.458;2023-04-24T07:53:02;10.50;10.50;9.00
67714;PMS7003;54505;44.022;20.458;2023-04-24T07:55:27;15.50;13.00;12.00
67714;PMS7003;54505;44.022;20.458;2023-04-24T07:57:53;11.50;11.50;10.00
67714;PMS7003;54505;44.022;20.458;2023-04-24T08:00:19;10.25;10.25;9.50
67714;PMS7003;54505;44.022;20.458;2023-04-24T08:02:45;10.50;10.50;10.00
67714;PMS7003;54505;44.022;20.458;2023-04-24T08:05:11;10.75;10.75;9.00
67714;PMS7003;54505;44.022;20.458;2023-04-24T08:07:36;9.75;9.75;9.50
67714;PMS7003;54505;44.022;20.458;2023-04-24T08:10:02;14.50;11.25;10.50
67714;PMS7003;54505;44.022;20.458;2023-04-24T08:12:28;20.25;15.00;14.25
67714;PMS7003;54505;44.022;20.458;2023-04-24T08:14:54;10.50;9.00;8.75
67714;PMS7003;54505;44.022;20.458;2023-04-24T08:17:19;9.00;8.00;7.50
67714;PMS7003;54505;44.022;20.458;2023-04-24T08:19:45;9.25;9.25;9.25
67714;PMS7003;54505;44.022;20.458;2023-04-24T08:22:14;10.00;10.00;8.50
67714;PMS7003;54505;44.022;20.458;2023-04-24T08:24:40;8.25;6.50;6.25
67714;PMS7003;54505;44.022;20.458;2023-04-24T08:27:05;12.00;10.25;9.00
67714;PMS7003;54505;44.022;20.458;2023-04-24T08:29:31;12.25;12.25;11.50
67714;PMS7003;54505;44.022;20.458;2023-04-24T08:31:57;6.00;6.00;6.00
67714;PMS7003;54505;44.022;20.458;2023-04-24T08:34:24;7.25;7.25;7.25
67714;PMS7003;54505;44.022;20.458;2023-04-24T08:36:50;11.50;10.00;9.00
67714;PMS7003;54505;44.022;20.458;2023-04-24T08:39:16;8.75;8.75;8.00
67714;PMS7003;54505;44.022;20.458;2023-04-24T08:41:42;6.75;6.75;6.00
67714;PMS7003;54505;44.022;20.458;2023-04-24T08:44:12;8.25;8.25;7.00
67714;PMS7003;54505;44.022;20.458;2023-04-24T08:46:39;10.50;9.00;7.75
67714;PMS7003;54505;44.022;20.458;2023-04-24T08:49:07;10.00;10.00;7.50
67714;PMS7003;54505;44.022;20.458;2023-04-24T08:51:33;11.75;10.25;9.50
67714;PMS7003;54505;44.022;20.458;2023-04-24T08:53:58;10.00;10.00;9.25
67714;PMS7003;54505;44.022;20.458;2023-04-24T08:56:24;9.50;7.00;6.00
67714;PMS7003;54505;44.022;20.458;2023-04-24T08:58:50;11.00;8.00;6.00
67714;PMS7003;54505;44.022;20.458;2023-04-24T09:01:16;9.00;9.00;8.75
67714;PMS7003;54505;44.022;20.458;2023-04-24T09:03:43;10.75;9.00;8.00
67714;PMS7003;54505;44.022;20.458;2023-04-24T09:06:10;18.75;16.75;14.25
67714;PMS7003;54505;44.022;20.458;2023-04-24T09:08:37;12.50;12.50;11.00
67714;PMS7003;54505;44.022;20.458;2023-04-24T09:11:05;8.25;8.25;7.50
67714;PMS7003;54505;44.022;20.458;2023-04-24T09:13:30;7.75;7.75;7.00
67714;PMS7003;54505;44.022;20.458;2023-04-24T09:15:57;9.75;8.75;8.50
67714;PMS7003;54505;44.022;20.458;2023-04-24T09:18:28;9.00;8.75;8.00
67714;PMS7003;54505;44.022;20.458;2023-04-24T09:21:00;9.00;9.00;9.00
67714;PMS7003;54505;44.022;20.458;2023-04-24T09:23:27;7.25;7.00;6.50
67714;PMS7003;54505;44.022;20.458;2023-04-24T09:25:56;6.75;6.75;6.50
67714;PMS7003;54505;44.022;20.458;2023-04-24T09:28:27;13.25;10.00;9.50
67714;PMS7003;54505;44.022;20.458;2023-04-24T09:33:29;7.25;5.50;5.00
67714;PMS7003;54505;44.022;20.458;2023-04-24T09:35:54;7.00;6.25;5.50
67714;PMS7003;54505;44.022;20.458;2023-04-24T09:38:41;5.00;5.00;4.75
67714;PMS7003;54505;44.022;20.458;2023-04-24T09:41:07;9.75;9.75;9.00
67714;PMS7003;54505;44.022;20.458;2023-04-24T09:43:33;5.50;5.50;5.00
67714;PMS7003;54505;44.022;20.458;2023-04-24T09:46:00;9.00;5.75;5.00
67714;PMS7003;54505;44.022;20.458;2023-04-24T09:48:30;7.75;7.75;6.75
67714;PMS7003;54505;44.022;20.458;2023-04-24T09:50:56;8.00;8.00;7.00
67714;PMS7003;54505;44.022;20.458;2023-04-24T09:53:25;5.00;5.00;5.00
67714;PMS7003;54505;44.022;20.458;2023-04-24T09:55:51;7.25;5.50;5.00
67714;PMS7003;54505;44.022;20.458;2023-04-24T09:58:28;8.75;8.75;8.75
67714;PMS7003;54505;44.022;20.458;2023-04-24T10:00:54;4.50;4.50;4.50
67714;PMS7003;54505;44.022;20.458;2023-04-24T10:03:20;6.50;6.00;5.50
67714;PMS7003;54505;44.022;20.458;2023-04-24T10:05:46;6.50;5.75;5.00
67714;PMS7003;54505;44.022;20.458;2023-04-24T10:08:12;6.75;5.50;5.00
67714;PMS7003;54505;44.022;20.458;2023-04-24T10:10:42;8.25;6.25;6.00
67714;PMS7003;54505;44.022;20.458;2023-04-24T10:13:09;13.25;11.25;10.50
67714;PMS7003;54505;44.022;20.458;2023-04-24T10:15:35;8.75;5.25;4.75
67714;PMS7003;54505;44.022;20.458;2023-04-24T10:18:01;9.50;8.00;7.75
67714;PMS7003;54505;44.022;20.458;2023-04-24T10:20:28;12.50;10.00;9.25
67714;PMS7003;54505;44.022;20.458;2023-04-24T10:22:56;94.00;85.75;60.25
67714;PMS7003;54505;44.022;20.458;2023-04-24T10:25:26;17.50;16.25;14.75
67714;PMS7003;54505;44.022;20.458;2023-04-24T10:27:52;17.00;17.00;14.50
67714;PMS7003;54505;44.022;20.458;2023-04-24T10:30:19;8.75;6.25;6.00
67714;PMS7003;54505;44.022;20.458;2023-04-24T10:32:45;20.50;16.00;13.50
67714;PMS7003;54505;44.022;20.458;2023-04-24T10:35:14;7.00;7.00;6.00
67714;PMS7003;54505;44.022;20.458;2023-04-24T10:37:45;12.00;10.25;8.75
67714;PMS7003;54505;44.022;20.458;2023-04-24T10:40:11;10.50;10.50;10.00
67714;PMS7003;54505;44.022;20.458;2023-04-24T10:42:40;7.50;6.25;6.00
67714;PMS7003;54505;44.022;20.458;2023-04-24T10:45:27;6.50;4.25;4.00
67714;PMS7003;54505;44.022;20.458;2023-04-24T10:47:53;25.25;23.50;20.50
67714;PMS7003;54505;44.022;20.458;2023-04-24T10:50:21;7.75;6.50;6.50
67714;PMS7003;54505;44.022;20.458;2023-04-24T10:52:48;10.00;6.25;5.25
67714;PMS7003;54505;44.022;20.458;2023-04-24T10:55:16;6.00;4.25;4.25
67714;PMS7003;54505;44.022;20.458;2023-04-24T10:58:03;11.25;11.25;11.00
67714;PMS7003;54505;44.022;20.458;2023-04-24T11:00:28;5.00;5.00;5.00
67714;PMS7003;54505;44.022;20.458;2023-04-24T11:02:54;10.75;10.50;9.25
67714;PMS7003;54505;44.022;20.458;2023-04-24T11:05:20;7.75;6.50;6.00
67714;PMS7003;54505;44.022;20.458;2023-04-24T11:10:31;10.50;10.50;10.00
67714;PMS7003;54505;44.022;20.458;2023-04-24T11:12:57;12.50;10.00;9.00
67714;PMS7003;54505;44.022;20.458;2023-04-24T11:15:22;6.75;6.75;6.25
67714;PMS7003;54505;44.022;20.458;2023-04-24T11:17:48;6.50;5.75;5.25
67714;PMS7003;54505;44.022;20.458;2023-04-24T11:20:16;9.75;9.75;8.75
67714;PMS7003;54505;44.022;20.458;2023-04-24T11:22:42;11.25;10.75;9.75
67714;PMS7003;54505;44.022;20.458;2023-04-24T11:25:08;11.00;9.50;9.50
67714;PMS7003;54505;44.022;20.458;2023-04-24T11:27:39;8.50;8.50;8.00
67714;PMS7003;54505;44.022;20.458;2023-04-24T11:30:05;10.50;10.50;9.75
67714;PMS7003;54505;44.022;20.458;2023-04-24T11:32:35;12.00;10.50;8.25
67714;PMS7003;54505;44.022;20.458;2023-04-24T11:37:28;12.75;11.25;10.00
67714;PMS7003;54505;44.022;20.458;2023-04-24T11:39:55;30.00;28.00;22.00
67714;PMS7003;54505;44.022;20.458;2023-04-24T11:42:21;10.25;10.25;9.75
67714;PMS7003;54505;44.022;20.458;2023-04-24T11:44:48;15.75;15.75;15.50
67714;PMS7003;54505;44.022;20.458;2023-04-24T11:47:15;19.50;18.00;16.50
67714;PMS7003;54505;44.022;20.458;2023-04-24T11:49:41;11.00;11.00;10.25
67714;PMS7003;54505;44.022;20.458;2023-04-24T11:52:06;13.75;12.00;10.75
67714;PMS7003;54505;44.022;20.458;2023-04-24T11:54:32;9.75;9.75;8.25
67714;PMS7003;54505;44.022;20.458;2023-04-24T11:56:58;9.75;9.75;7.00
67714;PMS7003;54505;44.022;20.458;2023-04-24T11:59:24;14.50;11.00;9.50
67714;PMS7003;54505;44.022;20.458;2023-04-24T12:01:50;13.25;12.00;10.75
67714;PMS7003;54505;44.022;20.458;2023-04-24T12:04:16;16.25;11.25;10.25
67714;PMS7003;54505;44.022;20.458;2023-04-24T12:09:26;14.75;14.75;13.25
67714;PMS7003;54505;44.022;20.458;2023-04-24T12:11:55;12.50;11.25;9.75
67714;PMS7003;54505;44.022;20.458;2023-04-24T12:14:23;10.50;10.50;10.00
67714;PMS7003;54505;44.022;20.458;2023-04-24T12:16:49;11.75;11.50;10.50
67714;PMS7003;54505;44.022;20.458;2023-04-24T12:19:21;10.50;8.75;8.25
67714;PMS7003;54505;44.022;20.458;2023-04-24T12:22:00;10.00;10.00;10.00
67714;PMS7003;54505;44.022;20.458;2023-04-24T12:24:26;14.75;9.75;9.75
67714;PMS7003;54505;44.022;20.458;2023-04-24T12:26:52;10.00;7.00;7.00
67714;PMS7003;54505;44.022;20.458;2023-04-24T12:29:22;15.50;12.00;11.00
67714;PMS7003;54505;44.022;20.458;2023-04-24T12:31:48;10.00;9.25;9.00
67714;PMS7003;54505;44.022;20.458;2023-04-24T12:34:20;7.75;7.75;7.25
67714;PMS7003;54505;44.022;20.458;2023-04-24T12:36:46;13.50;13.50;11.75
67714;PMS7003;54505;44.022;20.458;2023-04-24T12:39:18;15.00;14.50;12.75
67714;PMS7003;54505;44.022;20.458;2023-04-24T12:41:57;23.75;21.50;19.50
67714;PMS7003;54505;44.022;20.458;2023-04-24T12:44:31;38.75;34.75;27.75
67714;PMS7003;54505;44.022;20.458;2023-04-24T12:46:57;17.25;17.25;14.50
67714;PMS7003;54505;44.022;20.458;2023-04-24T12:49:23;18.50;18.50;17.00
67714;PMS7003;54505;44.022;20.458;2023-04-24T12:51:48;15.25;11.50;10.75
67714;PMS7003;54505;44.022;20.458;2023-04-24T12:54:14;12.75;12.75;11.75
67714;PMS7003;54505;44.022;20.458;2023-04-24T12:56:40;13.50;12.00;11.00
67714;PMS7003;54505;44.022;20.458;2023-04-24T12:59:05;22.75;18.75;16.50
67714;PMS7003;54505;44.022;20.458;2023-04-24T13:01:31;19.50;17.75;15.00
67714;PMS7003;54505;44.022;20.458;2023-04-24T13:03:57;17.25;16.25;14.75
67714;PMS7003;54505;44.022;20.458;2023-04-24T13:06:22;22.25;18.75;15.50
67714;PMS7003;54505;44.022;20.458;2023-04-24T13:08:48;16.00;14.00;12.00
67714;PMS7003;54505;44.022;20.458;2023-04-24T13:11:14;10.25;7.75;7.00
67714;PMS7003;54505;44.022;20.458;2023-04-24T13:13:40;10.00;10.00;9.00
67714;PMS7003;54505;44.022;20.458;2023-04-24T13:16:05;6.00;4.00;3.00
67714;PMS7003;54505;44.022;20.458;2023-04-24T13:18:31;8.25;8.00;7.50
67714;PMS7003;54505;44.022;20.458;2023-04-24T13:20:57;22.25;22.25;20.25
67714;PMS7003;54505;44.022;20.458;2023-04-24T13:23:22;11.00;9.25;9.00
67714;PMS7003;54505;44.022;20.458;2023-04-24T13:25:48;9.00;7.00;7.00
67714;PMS7003;54505;44.022;20.458;2023-04-24T13:28:14;16.50;16.50;15.75
67714;PMS7003;54505;44.022;20.458;2023-04-24T13:30:40;8.25;8.25;8.25
67714;PMS7003;54505;44.022;20.458;2023-04-24T13:33:06;7.50;4.25;3.75
67714;PMS7003;54505;44.022;20.458;2023-04-24T13:35:32;9.00;9.00;8.00
67714;PMS7003;54505;44.022;20.458;2023-04-24T13:37:57;12.50;11.00;11.00
67714;PMS7003;54505;44.022;20.458;2023-04-24T13:40:23;15.50;13.50;12.50
67714;PMS7003;54505;44.022;20.458;2023-04-24T13:42:49;11.50;11.00;10.00
67714;PMS7003;54505;44.022;20.458;2023-04-24T13:45:15;18.75;15.50;15.00
67714;PMS7003;54505;44.022;20.458;2023-04-24T13:47:40;14.25;12.50;11.00
67714;PMS7003;54505;44.022;20.458;2023-04-24T13:50:09;17.75;15.00;13.00